sensor_id;sensor_type;location;lat;lon;timestamp;pressure;altitude;pressure_sealevel;temperature;humidity
36222;BME280;22266;52.340;4.962;2024-01-30T00:00:47;102512.59;;;8.71;92.98
36222;BME280;22266;52.340;4.962;2024-01-30T00:03:13;102513.28;;;8.73;92.44
36222;BME280;22266;52.340;4.962;2024-01-30T00:05:40;102515.81;;;8.75;92.90
36222;BME280;22266;52.340;4.962;2024-01-30T00:08:07;102511.34;;;8.75;93.08
36222;BME280;22266;52.340;4.962;2024-01-30T00:10:34;102516.72;;;8.75;92.90
36222;BME280;22266;52.340;4.962;2024-01-30T00:13:00;102512.03;;;8.68;92.56
36222;BME280;22266;52.340;4.962;2024-01-30T00:15:27;102508.50;;;8.67;92.99
36222;BME280;22266;52.340;4.962;2024-01-30T00:17:54;102502.13;;;8.68;92.80
36222;BME280;22266;52.340;4.962;2024-01-30T00:20:21;102504.09;;;8.66;93.06
36222;BME280;22266;52.340;4.962;2024-01-30T00:22:48;102497.19;;;8.63;93.23
36222;BME280;22266;52.340;4.962;2024-01-30T00:25:15;102490.25;;;8.61;93.31
36222;BME280;22266;52.340;4.962;2024-01-30T00:27:41;102500.47;;;8.67;92.95
36222;BME280;22266;52.340;4.962;2024-01-30T00:30:09;102502.25;;;8.66;93.13
36222;BME280;22266;52.340;4.962;2024-01-30T00:32:35;102497.78;;;8.67;92.94
36222;BME280;22266;52.340;4.962;2024-01-30T00:35:02;102497.63;;;8.69;92.75
36222;BME280;22266;52.340;4.962;2024-01-30T00:37:29;102495.78;;;8.69;93.17
36222;BME280;22266;52.340;4.962;2024-01-30T00:39:57;102493.94;;;8.70;92.51
36222;BME280;22266;52.340;4.962;2024-01-30T00:42:24;102497.91;;;8.65;93.01
36222;BME280;22266;52.340;4.962;2024-01-30T00:44:51;102495.22;;;8.65;92.59
36222;BME280;22266;52.340;4.962;2024-01-30T00:47:18;102495.78;;;8.69;92.61
36222;BME280;22266;52.340;4.962;2024-01-30T00:49:44;102497.47;;;8.70;93.32
36222;BME280;22266;52.340;4.962;2024-01-30T00:52:11;102500.88;;;8.72;92.96
36222;BME280;22266;52.340;4.962;2024-01-30T00:54:38;102496.34;;;8.63;92.95
36222;BME280;22266;52.340;4.962;2024-01-30T00:57:05;102487.03;;;8.67;93.08
36222;BME280;22266;52.340;4.962;2024-01-30T00:59:31;102485.88;;;8.70;93.35
36222;BME280;22266;52.340;4.962;2024-01-30T01:01:58;102490.81;;;8.74;92.59
36222;BME280;22266;52.340;4.962;2024-01-30T01:04:25;102489.13;;;8.73;92.54
36222;BME280;22266;52.340;4.962;2024-01-30T01:06:53;102489.69;;;8.77;92.62
36222;BME280;22266;52.340;4.962;2024-01-30T01:09:20;102495.91;;;8.77;92.65
36222;BME280;22266;52.340;4.962;2024-01-30T01:11:46;102487.03;;;8.77;92.59
36222;BME280;22266;52.340;4.962;2024-01-30T01:14:14;102492.13;;;8.80;92.79
36222;BME280;22266;52.340;4.962;2024-01-30T01:16:40;102495.63;;;8.80;92.63
36222;BME280;22266;52.340;4.962;2024-01-30T01:19:07;102490.13;;;8.82;92.07
36222;BME280;22266;52.340;4.962;2024-01-30T01:21:34;102498.31;;;8.80;92.15
36222;BME280;22266;52.340;4.962;2024-01-30T01:24:00;102487.16;;;8.75;92.03
36222;BME280;22266;52.340;4.962;2024-01-30T01:26:27;102488.13;;;8.74;92.43
36222;BME280;22266;52.340;4.962;2024-01-30T01:28:54;102490.69;;;8.76;92.63
36222;BME280;22266;52.340;4.962;2024-01-30T01:31:20;102501.44;;;8.76;92.27
36222;BME280;22266;52.340;4.962;2024-01-30T01:33:51;102501.13;;;8.79;92.27
36222;BME280;22266;52.340;4.962;2024-01-30T01:36:17;102491.53;;;8.76;92.22
36222;BME280;22266;52.340;4.962;2024-01-30T01:38:44;102486.44;;;8.73;92.40
36222;BME280;22266;52.340;4.962;2024-01-30T01:41:11;102494.50;;;8.73;92.73
36222;BME280;22266;52.340;4.962;2024-01-30T01:43:37;102488.84;;;8.76;92.66
36222;BME280;22266;52.340;4.962;2024-01-30T01:46:08;102475.03;;;8.71;91.97
36222;BME280;22266;52.340;4.962;2024-01-30T01:48:35;102481.09;;;8.73;92.43
36222;BME280;22266;52.340;4.962;2024-01-30T01:51:04;102479.25;;;8.64;92.69
36222;BME280;22266;52.340;4.962;2024-01-30T01:53:31;102473.59;;;8.67;92.07
36222;BME280;22266;52.340;4.962;2024-01-30T01:55:58;102478.97;;;8.67;92.36
36222;BME280;22266;52.340;4.962;2024-01-30T01:58:26;102468.66;;;8.72;92.54
36222;BME280;22266;52.340;4.962;2024-01-30T02:00:56;102455.91;;;8.74;92.56
36222;BME280;22266;52.340;4.962;2024-01-30T02:03:23;102455.06;;;8.74;92.19
36222;BME280;22266;52.340;4.962;2024-01-30T02:05:50;102436.16;;;8.75;92.27
36222;BME280;22266;52.340;4.962;2024-01-30T02:08:17;102447.19;;;8.72;91.79
36222;BME280;22266;52.340;4.962;2024-01-30T02:10:44;102467.25;;;8.68;91.81
36222;BME280;22266;52.340;4.962;2024-01-30T02:13:11;102455.50;;;8.69;91.95
36222;BME280;22266;52.340;4.962;2024-01-30T02:15:38;102444.78;;;8.69;92.37
36222;BME280;22266;52.340;4.962;2024-01-30T02:18:04;102441.50;;;8.65;92.34
36222;BME280;22266;52.340;4.962;2024-01-30T02:20:35;102460.88;;;8.59;92.53
36222;BME280;22266;52.340;4.962;2024-01-30T02:23:02;102458.06;;;8.61;92.03
36222;BME280;22266;52.340;4.962;2024-01-30T02:25:33;102453.69;;;8.60;92.43
36222;BME280;22266;52.340;4.962;2024-01-30T02:28:00;102460.06;;;8.59;92.13
36222;BME280;22266;52.340;4.962;2024-01-30T02:30:26;102444.34;;;8.64;92.79
36222;BME280;22266;52.340;4.962;2024-01-30T02:32:53;102457.78;;;8.64;92.24
36222;BME280;22266;52.340;4.962;2024-01-30T02:35:20;102450.00;;;8.61;92.54
36222;BME280;22266;52.340;4.962;2024-01-30T02:37:46;102453.81;;;8.58;92.26
36222;BME280;22266;52.340;4.962;2024-01-30T02:40:13;102452.41;;;8.64;92.02
36222;BME280;22266;52.340;4.962;2024-01-30T02:42:39;102446.03;;;8.65;92.03
36222;BME280;22266;52.340;4.962;2024-01-30T02:45:07;102437.69;;;8.58;92.36
36222;BME280;22266;52.340;4.962;2024-01-30T02:47:34;102433.47;;;8.56;92.68
36222;BME280;22266;52.340;4.962;2024-01-30T02:50:00;102434.75;;;8.61;92.55
36222;BME280;22266;52.340;4.962;2024-01-30T02:52:27;102440.53;;;8.66;92.48
36222;BME280;22266;52.340;4.962;2024-01-30T02:54:54;102430.34;;;8.70;92.18
36222;BME280;22266;52.340;4.962;2024-01-30T02:57:20;102431.75;;;8.74;92.46
36222;BME280;22266;52.340;4.962;2024-01-30T02:59:47;102436.00;;;8.77;91.57
36222;BME280;22266;52.340;4.962;2024-01-30T03:02:13;102443.91;;;8.78;91.53
36222;BME280;22266;52.340;4.962;2024-01-30T03:04:43;102434.31;;;8.76;91.90
36222;BME280;22266;52.340;4.962;2024-01-30T03:07:10;102426.25;;;8.76;91.75
36222;BME280;22266;52.340;4.962;2024-01-30T03:09:36;102421.00;;;8.74;91.84
36222;BME280;22266;52.340;4.962;2024-01-30T03:12:04;102419.06;;;8.76;92.06
36222;BME280;22266;52.340;4.962;2024-01-30T03:14:34;102404.78;;;8.76;92.32
36222;BME280;22266;52.340;4.962;2024-01-30T03:17:01;102404.91;;;8.74;91.91
36222;BME280;22266;52.340;4.962;2024-01-30T03:19:28;102398.13;;;8.80;91.96
36222;BME280;22266;52.340;4.962;2024-01-30T03:21:55;102403.50;;;8.80;91.68
36222;BME280;22266;52.340;4.962;2024-01-30T03:24:21;102398.97;;;8.80;91.75
36222;BME280;22266;52.340;4.962;2024-01-30T03:26:48;102397.41;;;8.78;91.90
36222;BME280;22266;52.340;4.962;2024-01-30T03:29:14;102382.88;;;8.80;91.25
36222;BME280;22266;52.340;4.962;2024-01-30T03:31:42;102385.41;;;8.82;91.34
36222;BME280;22266;52.340;4.962;2024-01-30T03:34:08;102393.72;;;8.79;91.38
36222;BME280;22266;52.340;4.962;2024-01-30T03:36:35;102396.97;;;8.82;91.69
36222;BME280;22266;52.340;4.962;2024-01-30T03:39:01;102397.69;;;8.84;91.23
36222;BME280;22266;52.340;4.962;2024-01-30T03:41:28;102388.63;;;8.85;91.78
36222;BME280;22266;52.340;4.962;2024-01-30T03:43:55;102395.00;;;8.84;91.01
36222;BME280;22266;52.340;4.962;2024-01-30T03:46:21;102407.44;;;8.85;91.18
36222;BME280;22266;52.340;4.962;2024-01-30T03:48:48;102411.13;;;8.84;91.63
36222;BME280;22266;52.340;4.962;2024-01-30T03:51:14;102402.34;;;8.82;91.87
36222;BME280;22266;52.340;4.962;2024-01-30T03:53:42;102403.06;;;8.84;91.59
36222;BME280;22266;52.340;4.962;2024-01-30T03:56:09;102399.38;;;8.85;91.42
36222;BME280;22266;52.340;4.962;2024-01-30T03:58:36;102405.47;;;8.87;91.58
36222;BME280;22266;52.340;4.962;2024-01-30T04:01:03;102394.84;;;8.86;91.50
36222;BME280;22266;52.340;4.962;2024-01-30T04:03:30;102391.47;;;8.84;91.20
36222;BME280;22266;52.340;4.962;2024-01-30T04:05:56;102390.47;;;8.85;91.72
36222;BME280;22266;52.340;4.962;2024-01-30T04:08:23;102382.00;;;8.89;91.36
36222;BME280;22266;52.340;4.962;2024-01-30T04:10:50;102385.56;;;8.80;91.45
36222;BME280;22266;52.340;4.962;2024-01-30T04:13:16;102378.50;;;8.79;91.69
36222;BME280;22266;52.340;4.962;2024-01-30T04:15:43;102386.41;;;8.81;91.67
36222;BME280;22266;52.340;4.962;2024-01-30T04:18:10;102385.28;;;8.83;91.72
36222;BME280;22266;52.340;4.962;2024-01-30T04:20:36;102382.03;;;8.80;92.36
36222;BME280;22266;52.340;4.962;2024-01-30T04:23:03;102388.91;;;8.82;91.96
36222;BME280;22266;52.340;4.962;2024-01-30T04:25:29;102389.91;;;8.81;92.09
36222;BME280;22266;52.340;4.962;2024-01-30T04:27:56;102386.56;;;8.79;92.19
36222;BME280;22266;52.340;4.962;2024-01-30T04:30:23;102383.72;;;8.81;91.90
36222;BME280;22266;52.340;4.962;2024-01-30T04:32:49;102385.13;;;8.85;91.77
36222;BME280;22266;52.340;4.962;2024-01-30T04:35:16;102386.78;;;8.86;91.93
36222;BME280;22266;52.340;4.962;2024-01-30T04:37:43;102382.00;;;8.89;92.29
36222;BME280;22266;52.340;4.962;2024-01-30T04:40:10;102383.84;;;8.89;91.69
36222;BME280;22266;52.340;4.962;2024-01-30T04:42:36;102373.78;;;8.91;91.77
36222;BME280;22266;52.340;4.962;2024-01-30T04:45:03;102369.13;;;8.93;91.24
36222;BME280;22266;52.340;4.962;2024-01-30T04:47:30;102372.81;;;8.92;91.79
36222;BME280;22266;52.340;4.962;2024-01-30T04:49:56;102361.34;;;8.90;91.64
36222;BME280;22266;52.340;4.962;2024-01-30T04:52:23;102362.34;;;8.89;91.74
36222;BME280;22266;52.340;4.962;2024-01-30T04:54:50;102354.13;;;8.90;91.64
36222;BME280;22266;52.340;4.962;2024-01-30T04:57:16;102357.13;;;8.87;91.65
36222;BME280;22266;52.340;4.962;2024-01-30T04:59:43;102361.34;;;8.90;91.30
36222;BME280;22266;52.340;4.962;2024-01-30T05:02:10;102351.31;;;8.92;91.57
36222;BME280;22266;52.340;4.962;2024-01-30T05:04:36;102341.53;;;8.91;91.16
36222;BME280;22266;52.340;4.962;2024-01-30T05:07:03;102347.06;;;8.89;91.17
36222;BME280;22266;52.340;4.962;2024-01-30T05:09:30;102350.59;;;8.90;91.08
36222;BME280;22266;52.340;4.962;2024-01-30T05:11:57;102346.25;;;8.89;91.47
36222;BME280;22266;52.340;4.962;2024-01-30T05:14:24;102354.72;;;8.84;91.79
36222;BME280;22266;52.340;4.962;2024-01-30T05:16:51;102350.50;;;8.82;91.89
36222;BME280;22266;52.340;4.962;2024-01-30T05:19:17;102346.81;;;8.83;91.48
36222;BME280;22266;52.340;4.962;2024-01-30T05:21:44;102356.56;;;8.84;91.80
36222;BME280;22266;52.340;4.962;2024-01-30T05:24:11;102365.59;;;8.83;91.54
36222;BME280;22266;52.340;4.962;2024-01-30T05:26:38;102360.81;;;8.77;92.00
36222;BME280;22266;52.340;4.962;2024-01-30T05:29:05;102359.81;;;8.78;92.34
36222;BME280;22266;52.340;4.962;2024-01-30T05:31:32;102365.75;;;8.81;92.03
36222;BME280;22266;52.340;4.962;2024-01-30T05:33:58;102359.25;;;8.84;91.81
36222;BME280;22266;52.340;4.962;2024-01-30T05:36:25;102365.31;;;8.86;91.68
36222;BME280;22266;52.340;4.962;2024-01-30T05:38:52;102366.03;;;8.88;91.40
36222;BME280;22266;52.340;4.962;2024-01-30T05:41:19;102363.19;;;8.89;91.68
36222;BME280;22266;52.340;4.962;2024-01-30T05:43:47;102359.53;;;8.81;91.86
36222;BME280;22266;52.340;4.962;2024-01-30T05:46:14;102369.44;;;8.80;91.21
36222;BME280;22266;52.340;4.962;2024-01-30T05:48:41;102359.53;;;8.81;92.13
36222;BME280;22266;52.340;4.962;2024-01-30T05:51:08;102366.03;;;8.78;92.14
36222;BME280;22266;52.340;4.962;2024-01-30T05:53:35;102369.44;;;8.80;91.95
36222;BME280;22266;52.340;4.962;2024-01-30T05:56:02;102361.38;;;8.80;92.13
36222;BME280;22266;52.340;4.962;2024-01-30T05:58:29;102366.75;;;8.80;92.03
36222;BME280;22266;52.340;4.962;2024-01-30T06:00:55;102367.44;;;8.82;92.28
36222;BME280;22266;52.340;4.962;2024-01-30T06:03:22;102356.84;;;8.81;92.14
36222;BME280;22266;52.340;4.962;2024-01-30T06:05:49;102360.09;;;8.75;92.04
36222;BME280;22266;52.340;4.962;2024-01-30T06:08:15;102355.31;;;8.78;92.41
36222;BME280;22266;52.340;4.962;2024-01-30T06:10:42;102355.00;;;8.81;92.06
36222;BME280;22266;52.340;4.962;2024-01-30T06:13:08;102355.00;;;8.81;92.16
36222;BME280;22266;52.340;4.962;2024-01-30T06:15:35;102350.78;;;8.79;92.14
36222;BME280;22266;52.340;4.962;2024-01-30T06:18:01;102345.97;;;8.82;92.25
36222;BME280;22266;52.340;4.962;2024-01-30T06:20:28;102353.72;;;8.85;92.00
36222;BME280;22266;52.340;4.962;2024-01-30T06:22:55;102358.81;;;8.79;92.50
36222;BME280;22266;52.340;4.962;2024-01-30T06:25:22;102363.06;;;8.81;92.34
36222;BME280;22266;52.340;4.962;2024-01-30T06:27:48;102370.97;;;8.83;92.37
36222;BME280;22266;52.340;4.962;2024-01-30T06:30:15;102373.13;;;8.79;92.69
36222;BME280;22266;52.340;4.962;2024-01-30T06:32:42;102376.34;;;8.83;92.34
36222;BME280;22266;52.340;4.962;2024-01-30T06:35:08;102375.94;;;8.78;92.41
36222;BME280;22266;52.340;4.962;2024-01-30T06:37:36;102375.09;;;8.77;93.39
36222;BME280;22266;52.340;4.962;2024-01-30T06:40:03;102370.84;;;8.75;93.36
36222;BME280;22266;52.340;4.962;2024-01-30T06:42:31;102364.91;;;8.81;93.03
36222;BME280;22266;52.340;4.962;2024-01-30T06:44:58;102360.94;;;8.85;92.88
36222;BME280;22266;52.340;4.962;2024-01-30T06:47:24;102359.09;;;8.85;92.92
36222;BME280;22266;52.340;4.962;2024-01-30T06:49:51;102371.41;;;8.88;93.31
36222;BME280;22266;52.340;4.962;2024-01-30T06:52:18;102350.59;;;8.90;93.09
36222;BME280;22266;52.340;4.962;2024-01-30T06:54:44;102365.72;;;8.91;93.14
36222;BME280;22266;52.340;4.962;2024-01-30T06:57:11;102362.19;;;8.90;92.80
36222;BME280;22266;52.340;4.962;2024-01-30T06:59:38;102364.03;;;8.90;92.83
36222;BME280;22266;52.340;4.962;2024-01-30T07:02:10;102367.72;;;8.89;93.17
36222;BME280;22266;52.340;4.962;2024-01-30T07:04:37;102362.06;;;8.92;93.24
36222;BME280;22266;52.340;4.962;2024-01-30T07:07:08;102370.25;;;8.90;92.68
36222;BME280;22266;52.340;4.962;2024-01-30T07:09:39;102375.63;;;8.90;93.14
36222;BME280;22266;52.340;4.962;2024-01-30T07:12:06;102377.91;;;8.85;93.16
36222;BME280;22266;52.340;4.962;2024-01-30T07:14:33;102376.78;;;8.88;93.71
36222;BME280;22266;52.340;4.962;2024-01-30T07:16:59;102391.44;;;8.94;93.56
36222;BME280;22266;52.340;4.962;2024-01-30T07:19:26;102375.06;;;8.97;93.62
36222;BME280;22266;52.340;4.962;2024-01-30T07:21:53;102388.72;;;9.03;93.00
36222;BME280;22266;52.340;4.962;2024-01-30T07:24:19;102392.69;;;8.99;92.96
36222;BME280;22266;52.340;4.962;2024-01-30T07:26:46;102386.78;;;8.96;93.80
36222;BME280;22266;52.340;4.962;2024-01-30T07:29:12;102387.31;;;8.99;93.79
36222;BME280;22266;52.340;4.962;2024-01-30T07:31:39;102387.59;;;9.06;93.70
36222;BME280;22266;52.340;4.962;2024-01-30T07:34:07;102408.94;;;9.07;93.49
36222;BME280;22266;52.340;4.962;2024-01-30T07:36:33;102391.00;;;9.08;93.83
36222;BME280;22266;52.340;4.962;2024-01-30T07:39:00;102400.75;;;9.09;93.49
36222;BME280;22266;52.340;4.962;2024-01-30T07:41:26;102400.59;;;9.10;94.00
36222;BME280;22266;52.340;4.962;2024-01-30T07:43:53;102399.06;;;9.08;93.69
36222;BME280;22266;52.340;4.962;2024-01-30T07:46:20;102395.38;;;9.09;94.05
36222;BME280;22266;52.340;4.962;2024-01-30T07:48:47;102400.59;;;9.10;94.02
36222;BME280;22266;52.340;4.962;2024-01-30T07:51:14;102401.03;;;9.06;94.62
36222;BME280;22266;52.340;4.962;2024-01-30T07:53:41;102409.34;;;9.12;94.92
36222;BME280;22266;52.340;4.962;2024-01-30T07:56:08;102412.59;;;9.16;94.30
36222;BME280;22266;52.340;4.962;2024-01-30T07:58:35;102420.34;;;9.19;94.26
36222;BME280;22266;52.340;4.962;2024-01-30T08:01:01;102408.03;;;9.26;94.14
36222;BME280;22266;52.340;4.962;2024-01-30T08:03:28;102415.41;;;9.24;94.55
36222;BME280;22266;52.340;4.962;2024-01-30T08:05:55;102406.19;;;9.27;94.46
36222;BME280;22266;52.340;4.962;2024-01-30T08:08:22;102411.97;;;9.32;94.48
36222;BME280;22266;52.340;4.962;2024-01-30T08:10:48;102412.50;;;9.35;94.09
36222;BME280;22266;52.340;4.962;2024-01-30T08:13:16;102416.34;;;9.33;93.85
36222;BME280;22266;52.340;4.962;2024-01-30T08:15:43;102424.81;;;9.38;94.13
36222;BME280;22266;52.340;4.962;2024-01-30T08:18:09;102420.44;;;9.37;94.22
36222;BME280;22266;52.340;4.962;2024-01-30T08:20:36;102418.88;;;9.34;94.60
36222;BME280;22266;52.340;4.962;2024-01-30T08:23:03;102418.16;;;9.42;94.11
36222;BME280;22266;52.340;4.962;2024-01-30T08:25:29;102418.00;;;9.44;93.86
36222;BME280;22266;52.340;4.962;2024-01-30T08:27:56;102418.88;;;9.44;93.98
36222;BME280;22266;52.340;4.962;2024-01-30T08:30:24;102422.78;;;9.50;93.91
36222;BME280;22266;52.340;4.962;2024-01-30T08:32:51;102423.25;;;9.45;94.02
36222;BME280;22266;52.340;4.962;2024-01-30T08:35:18;102428.75;;;9.44;94.41
36222;BME280;22266;52.340;4.962;2024-01-30T08:37:46;102424.75;;;9.48;94.53
36222;BME280;22266;52.340;4.962;2024-01-30T08:40:13;102422.06;;;9.48;95.05
36222;BME280;22266;52.340;4.962;2024-01-30T08:42:39;102421.50;;;9.54;94.25
36222;BME280;22266;52.340;4.962;2024-01-30T08:45:06;102428.72;;;9.53;94.42
36222;BME280;22266;52.340;4.962;2024-01-30T08:47:33;102439.06;;;9.48;94.19
36222;BME280;22266;52.340;4.962;2024-01-30T08:50:00;102431.53;;;9.52;94.89
36222;BME280;22266;52.340;4.962;2024-01-30T08:52:27;102432.94;;;9.56;94.55
36222;BME280;22266;52.340;4.962;2024-01-30T08:54:53;102432.94;;;9.56;94.65
36222;BME280;22266;52.340;4.962;2024-01-30T08:57:21;102434.22;;;9.52;94.25
36222;BME280;22266;52.340;4.962;2024-01-30T08:59:47;102438.47;;;9.54;94.32
36222;BME280;22266;52.340;4.962;2024-01-30T09:02:14;102439.75;;;9.50;94.73
36222;BME280;22266;52.340;4.962;2024-01-30T09:04:42;102436.22;;;9.50;95.31
36222;BME280;22266;52.340;4.962;2024-01-30T09:07:09;102434.22;;;9.52;95.40
36222;BME280;22266;52.340;4.962;2024-01-30T09:09:38;102434.38;;;9.50;95.76
36222;BME280;22266;52.340;4.962;2024-01-30T09:12:06;102435.63;;;9.56;95.60
36222;BME280;22266;52.340;4.962;2024-01-30T09:14:36;102442.56;;;9.58;95.76
36222;BME280;22266;52.340;4.962;2024-01-30T09:17:03;102443.41;;;9.59;95.47
36222;BME280;22266;52.340;4.962;2024-01-30T09:19:30;102448.47;;;9.62;95.39
36222;BME280;22266;52.340;4.962;2024-01-30T09:21:57;102443.78;;;9.64;95.14
36222;BME280;22266;52.340;4.962;2024-01-30T09:24:25;102446.63;;;9.62;95.30
36222;BME280;22266;52.340;4.962;2024-01-30T09:26:52;102445.50;;;9.65;95.37
36222;BME280;22266;52.340;4.962;2024-01-30T09:29:19;102444.50;;;9.66;95.52
36222;BME280;22266;52.340;4.962;2024-01-30T09:31:46;102450.56;;;9.68;95.52
36222;BME280;22266;52.340;4.962;2024-01-30T09:34:13;102443.25;;;9.60;96.69
36222;BME280;22266;52.340;4.962;2024-01-30T09:36:40;102452.41;;;9.68;96.11
36222;BME280;22266;52.340;4.962;2024-01-30T09:39:06;102454.22;;;9.77;96.08
36222;BME280;22266;52.340;4.962;2024-01-30T09:41:40;102443.88;;;9.72;95.99
36222;BME280;22266;52.340;4.962;2024-01-30T09:44:11;102465.63;;;9.88;96.06
36222;BME280;22266;52.340;4.962;2024-01-30T09:46:38;102468.00;;;9.91;95.32
36222;BME280;22266;52.340;4.962;2024-01-30T09:49:06;102467.03;;;9.93;95.33
36222;BME280;22266;52.340;4.962;2024-01-30T09:51:35;102464.00;;;9.96;94.88
36222;BME280;22266;52.340;4.962;2024-01-30T09:54:02;102471.97;;;9.87;95.24
36222;BME280;22266;52.340;4.962;2024-01-30T09:56:29;102471.31;;;9.85;95.59
36222;BME280;22266;52.340;4.962;2024-01-30T09:58:56;102469.56;;;9.94;94.98
36222;BME280;22266;52.340;4.962;2024-01-30T10:01:23;102476.31;;;9.98;94.51
36222;BME280;22266;52.340;4.962;2024-01-30T10:03:50;102476.50;;;9.97;94.32
36222;BME280;22266;52.340;4.962;2024-01-30T10:06:19;102465.00;;;9.95;94.46
36222;BME280;22266;52.340;4.962;2024-01-30T10:08:49;102463.22;;;9.85;94.44
36222;BME280;22266;52.340;4.962;2024-01-30T10:11:16;102485.97;;;9.91;94.13
36222;BME280;22266;52.340;4.962;2024-01-30T10:13:42;102496.53;;;9.75;94.54
36222;BME280;22266;52.340;4.962;2024-01-30T10:16:09;102496.44;;;9.66;94.19
36222;BME280;22266;52.340;4.962;2024-01-30T10:18:35;102498.75;;;9.52;93.76
36222;BME280;22266;52.340;4.962;2024-01-30T10:21:02;102500.47;;;9.53;93.62
36222;BME280;22266;52.340;4.962;2024-01-30T10:23:29;102507.56;;;9.44;92.44
36222;BME280;22266;52.340;4.962;2024-01-30T10:26:03;102506.41;;;9.47;92.10
36222;BME280;22266;52.340;4.962;2024-01-30T10:28:30;102503.84;;;9.55;91.48
36222;BME280;22266;52.340;4.962;2024-01-30T10:30:58;102508.81;;;9.50;91.68
36222;BME280;22266;52.340;4.962;2024-01-30T10:33:31;102528.94;;;9.36;91.17
36222;BME280;22266;52.340;4.962;2024-01-30T10:36:03;102526.25;;;9.26;91.77
36222;BME280;22266;52.340;4.962;2024-01-30T10:38:32;102535.47;;;9.24;91.10
36222;BME280;22266;52.340;4.962;2024-01-30T10:41:00;102533.34;;;9.18;91.05
36222;BME280;22266;52.340;4.962;2024-01-30T10:43:33;102531.09;;;9.13;91.69
36222;BME280;22266;52.340;4.962;2024-01-30T10:46:18;102530.25;;;9.12;92.16
36222;BME280;22266;52.340;4.962;2024-01-30T10:48:57;102532.91;;;9.22;92.02
36222;BME280;22266;52.340;4.962;2024-01-30T10:51:26;102535.16;;;9.27;92.03
36222;BME280;22266;52.340;4.962;2024-01-30T10:53:53;102536.00;;;9.27;92.06
36222;BME280;22266;52.340;4.962;2024-01-30T10:56:22;102531.50;;;9.28;92.09
36222;BME280;22266;52.340;4.962;2024-01-30T10:58:50;102541.69;;;9.24;92.10
36222;BME280;22266;52.340;4.962;2024-01-30T11:01:21;102543.41;;;9.15;92.70
36222;BME280;22266;52.340;4.962;2024-01-30T11:03:51;102541.69;;;9.14;93.96
36222;BME280;22266;52.340;4.962;2024-01-30T11:06:18;102536.31;;;9.14;93.31
36222;BME280;22266;52.340;4.962;2024-01-30T11:09:02;102539.88;;;9.05;94.39
36222;BME280;22266;52.340;4.962;2024-01-30T11:11:56;102538.31;;;9.03;94.63
36222;BME280;22266;52.340;4.962;2024-01-30T11:14:29;102536.59;;;9.02;94.58
36222;BME280;22266;52.340;4.962;2024-01-30T11:16:59;102544.53;;;9.13;94.25
36222;BME280;22266;52.340;4.962;2024-01-30T11:19:30;102542.41;;;9.07;94.08
36222;BME280;22266;52.340;4.962;2024-01-30T11:21:57;102532.09;;;9.02;93.92
36222;BME280;22266;52.340;4.962;2024-01-30T11:24:24;102544.38;;;9.05;93.58
36222;BME280;22266;52.340;4.962;2024-01-30T11:26:57;102542.41;;;8.97;94.19
36222;BME280;22266;52.340;4.962;2024-01-30T11:29:28;102546.94;;;8.97;94.52
36222;BME280;22266;52.340;4.962;2024-01-30T11:31:56;102547.75;;;9.07;94.51
36222;BME280;22266;52.340;4.962;2024-01-30T11:34:23;102549.47;;;9.18;93.75
36222;BME280;22266;52.340;4.962;2024-01-30T11:37:03;102555.56;;;9.10;94.05
36222;BME280;22266;52.340;4.962;2024-01-30T11:39:33;102559.78;;;9.03;94.59
36222;BME280;22266;52.340;4.962;2024-01-30T11:42:01;102549.03;;;9.03;94.41
36222;BME280;22266;52.340;4.962;2024-01-30T11:44:27;102553.97;;;9.07;95.08
36222;BME280;22266;52.340;4.962;2024-01-30T11:46:54;102553.72;;;8.91;95.28
36222;BME280;22266;52.340;4.962;2024-01-30T11:49:21;102561.63;;;8.83;95.63
36222;BME280;22266;52.340;4.962;2024-01-30T11:51:48;102543.81;;;8.82;95.75
36222;BME280;22266;52.340;4.962;2024-01-30T11:54:16;102551.75;;;8.83;95.60
36222;BME280;22266;52.340;4.962;2024-01-30T11:56:42;102540.44;;;8.80;96.07
36222;BME280;22266;52.340;4.962;2024-01-30T11:59:09;102551.44;;;8.86;95.43
36222;BME280;22266;52.340;4.962;2024-01-30T12:01:36;102537.44;;;9.02;95.40
36222;BME280;22266;52.340;4.962;2024-01-30T12:04:03;102542.97;;;9.01;94.22
36222;BME280;22266;52.340;4.962;2024-01-30T12:06:35;102544.81;;;9.00;93.56
36222;BME280;22266;52.340;4.962;2024-01-30T12:09:03;102553.97;;;9.07;93.06
36222;BME280;22266;52.340;4.962;2024-01-30T12:11:45;102547.50;;;8.90;93.81
36222;BME280;22266;52.340;4.962;2024-01-30T12:14:12;102551.31;;;8.98;93.42
36222;BME280;22266;52.340;4.962;2024-01-30T12:16:39;102549.34;;;9.00;93.65
36222;BME280;22266;52.340;4.962;2024-01-30T12:19:05;102557.13;;;8.93;93.70
36222;BME280;22266;52.340;4.962;2024-01-30T12:21:33;102558.38;;;8.99;94.29
36222;BME280;22266;52.340;4.962;2024-01-30T12:24:00;102562.47;;;9.03;94.27
36222;BME280;22266;52.340;4.962;2024-01-30T12:26:27;102573.22;;;9.03;94.09
36222;BME280;22266;52.340;4.962;2024-01-30T12:28:55;102564.72;;;9.07;94.45
36222;BME280;22266;52.340;4.962;2024-01-30T12:31:26;102565.59;;;9.08;94.79
36222;BME280;22266;52.340;4.962;2024-01-30T12:33:54;102581.72;;;9.08;95.05
36222;BME280;22266;52.340;4.962;2024-01-30T12:36:22;102572.53;;;9.01;95.75
36222;BME280;22266;52.340;4.962;2024-01-30T12:38:49;102576.91;;;9.02;95.70
36222;BME280;22266;52.340;4.962;2024-01-30T12:41:16;102572.53;;;9.01;96.04
36222;BME280;22266;52.340;4.962;2024-01-30T12:43:43;102571.97;;;8.97;96.25
36222;BME280;22266;52.340;4.962;2024-01-30T12:46:10;102575.50;;;8.98;96.84
36222;BME280;22266;52.340;4.962;2024-01-30T12:48:37;102575.91;;;9.03;96.69
36222;BME280;22266;52.340;4.962;2024-01-30T12:51:04;102570.38;;;8.95;96.89
36222;BME280;22266;52.340;4.962;2024-01-30T12:53:31;102570.38;;;8.95;97.76
36222;BME280;22266;52.340;4.962;2024-01-30T12:55:57;102563.34;;;8.94;97.60
36222;BME280;22266;52.340;4.962;2024-01-30T12:58:24;102574.66;;;8.97;97.43
36222;BME280;22266;52.340;4.962;2024-01-30T13:00:51;102566.00;;;8.94;97.54